Time;durP1;ratioP1;P1;durP2;ratioP2;P2;SDS_P1;SDS_P2;PMS_P1;PMS_P2;Temp;Humidity;BMP_temperature;BMP_pressure;BME280_temperature;BME280_humidity;BME280_pressure;Samples;Min_cycle;Max_cycle;Signal;HPM_P1;HPM_P2
2021/07/21 00:01:18;;;;;;;6.77;5.87;;;24.30;67.10;;;;;;5049074;28;20206;-72
2021/07/21 00:03:45;;;;;;;7.47;5.80;;;24.30;67.30;;;;;;5044293;28;20211;-72
2021/07/21 00:06:13;;;;;;;9.13;5.83;;;24.30;67.20;;;;;;5045672;28;20211;-73
2021/07/21 00:08:40;;;;;;;10.67;6.57;;;24.20;67.40;;;;;;5045965;28;20211;-73
2021/07/21 00:13:54;;;;;;;7.97;6.47;;;24.10;68.00;;;;;;5044570;28;20269;-72
2021/07/21 00:16:36;;;;;;;9.43;6.27;;;24.00;67.90;;;;;;5041619;28;20242;-72
2021/07/21 00:21:54;;;;;;;9.80;6.73;;;24.00;68.70;;;;;;5041064;28;20227;-72
2021/07/21 00:24:21;;;;;;;7.70;5.73;;;24.00;68.90;;;;;;5045899;28;20226;-72
2021/07/21 00:26:48;;;;;;;16.80;6.20;;;23.90;69.30;;;;;;5045643;28;20222;-72
2021/07/21 00:29:15;;;;;;;10.73;6.33;;;24.00;69.60;;;;;;5047858;28;20627;-72
2021/07/21 00:31:42;;;;;;;7.50;6.07;;;23.90;69.80;;;;;;5039942;28;20593;-72
2021/07/21 00:34:10;;;;;;;10.63;6.43;;;23.90;70.00;;;;;;5039307;28;20324;-72
2021/07/21 00:36:37;;;;;;;9.80;6.40;;;23.90;70.10;;;;;;5040149;28;20288;-73
2021/07/21 00:39:04;;;;;;;8.00;6.73;;;23.90;70.00;;;;;;5046695;28;20242;-73
2021/07/21 00:41:31;;;;;;;7.80;6.57;;;23.90;70.40;;;;;;5043750;28;20226;-73
2021/07/21 00:43:59;;;;;;;11.43;7.63;;;23.90;70.80;;;;;;5047675;28;20563;-72
2021/07/21 00:46:26;;;;;;;9.80;7.03;;;23.80;71.00;;;;;;5043095;28;20219;-72
2021/07/21 00:48:53;;;;;;;13.13;6.63;;;23.80;71.20;;;;;;5047102;28;20666;-72
2021/07/21 00:51:20;;;;;;;7.90;7.10;;;23.80;71.40;;;;;;5043428;28;20221;-72
2021/07/21 00:53:47;;;;;;;11.60;6.80;;;23.80;71.70;;;;;;5048644;28;20238;-72
2021/07/21 00:56:15;;;;;;;9.30;7.20;;;23.70;71.90;;;;;;5045914;28;20268;-72
2021/07/21 00:58:42;;;;;;;9.67;7.07;;;23.60;72.20;;;;;;5044542;28;20211;-72
2021/07/21 01:01:10;;;;;;;13.97;8.90;;;23.60;72.60;;;;;;5043210;28;20207;-72
2021/07/21 01:03:37;;;;;;;13.10;7.40;;;23.60;72.90;;;;;;5045282;28;20302;-72
2021/07/21 01:06:04;;;;;;;9.47;6.63;;;23.60;73.30;;;;;;5044638;28;20218;-73
2021/07/21 01:12:12;;;;;;;9.73;7.50;;;23.50;74.00;;;;;;5039646;28;20626;-73
2021/07/21 01:14:39;;;;;;;10.53;7.80;;;23.50;73.90;;;;;;5039474;28;20242;-72
2021/07/21 01:17:15;;;;;;;7.97;6.97;;;23.50;74.30;;;;;;5041723;28;20215;-72
2021/07/21 01:20:03;;;;;;;11.77;8.40;;;23.40;74.80;;;;;;5040779;28;20226;-72
2021/07/21 01:22:35;;;;;;;11.07;7.73;;;23.40;74.80;;;;;;5042807;28;20637;-72
2021/07/21 01:25:13;;;;;;;9.87;8.07;;;23.40;75.00;;;;;;5039046;28;20222;-72
2021/07/21 01:27:51;;;;;;;17.53;7.80;;;23.30;75.30;;;;;;5041793;28;20223;-72
2021/07/21 01:30:21;;;;;;;11.30;7.80;;;23.30;75.40;;;;;;5043368;28;20219;-72
2021/07/21 01:33:21;;;;;;;13.87;7.23;;;23.30;75.40;;;;;;5044611;28;20257;-72
2021/07/21 01:36:05;;;;;;;11.17;7.80;;;23.30;75.70;;;;;;5046102;28;20219;-72
2021/07/21 01:38:45;;;;;;;14.77;7.90;;;23.20;76.10;;;;;;5042104;28;20249;-72
2021/07/21 01:41:26;;;;;;;10.10;8.90;;;23.20;76.30;;;;;;5048561;28;20632;-72
2021/07/21 01:43:59;;;;;;;9.97;7.53;;;23.10;76.50;;;;;;5042805;28;20288;-73
2021/07/21 01:46:27;;;;;;;12.00;8.10;;;23.10;76.90;;;;;;5038215;28;20289;-73
2021/07/21 01:48:57;;;;;;;11.07;8.63;;;23.10;77.10;;;;;;5042273;28;20210;-73
2021/07/21 01:51:25;;;;;;;9.97;8.27;;;23.00;77.30;;;;;;5046768;28;20268;-73
2021/07/21 01:53:54;;;;;;;10.27;7.80;;;23.00;77.70;;;;;;5044544;28;20230;-73
2021/07/21 01:56:22;;;;;;;10.80;7.70;;;23.00;78.10;;;;;;5042261;28;20230;-73
2021/07/21 01:58:52;;;;;;;9.97;8.83;;;23.00;78.20;;;;;;5044403;28;20284;-73
2021/07/21 02:01:20;;;;;;;11.33;9.13;;;23.00;78.30;;;;;;5044748;28;20214;-73
2021/07/21 02:03:48;;;;;;;15.20;8.90;;;23.00;78.50;;;;;;5043907;28;20215;-73
2021/07/21 02:06:16;;;;;;;18.73;9.17;;;23.00;78.60;;;;;;5044235;28;20218;-73
2021/07/21 02:08:44;;;;;;;18.10;9.37;;;23.00;78.70;;;;;;5045931;28;20214;-73
2021/07/21 02:11:11;;;;;;;11.47;8.80;;;23.00;78.90;;;;;;5041956;28;20219;-73
2021/07/21 02:13:39;;;;;;;13.57;9.63;;;22.90;79.20;;;;;;5043958;28;20327;-73
2021/07/21 02:16:07;;;;;;;14.50;9.17;;;22.90;79.70;;;;;;5037603;28;20213;-73
2021/07/21 02:18:34;;;;;;;14.23;9.90;;;22.90;79.80;;;;;;5044159;28;20211;-72
2021/07/21 02:21:04;;;;;;;16.23;10.10;;;22.80;80.10;;;;;;5044146;28;20646;-72
2021/07/21 02:23:36;;;;;;;13.00;10.27;;;22.80;80.50;;;;;;5043659;28;20226;-73
2021/07/21 02:26:04;;;;;;;17.93;9.60;;;22.80;80.80;;;;;;5043950;28;20229;-73
2021/07/21 02:28:31;;;;;;;12.77;9.37;;;22.80;80.80;;;;;;5039461;28;20218;-73
2021/07/21 02:31:01;;;;;;;14.97;10.57;;;22.80;80.90;;;;;;5043485;28;20230;-73
2021/07/21 02:33:53;;;;;;;11.10;9.93;;;22.80;80.90;;;;;;5043281;28;20307;-73
2021/07/21 02:36:20;;;;;;;12.67;8.90;;;22.70;81.10;;;;;;5037877;28;20216;-73
2021/07/21 02:38:47;;;;;;;11.83;10.70;;;22.70;81.30;;;;;;5043885;28;20253;-73
2021/07/21 02:41:15;;;;;;;13.50;10.77;;;22.70;81.50;;;;;;5043010;28;20234;-73
2021/07/21 02:43:42;;;;;;;16.33;10.23;;;22.70;81.70;;;;;;5044410;28;20264;-73
2021/07/21 02:46:10;;;;;;;11.00;9.90;;;22.70;81.80;;;;;;5040133;28;20631;-73
2021/07/21 02:48:41;;;;;;;14.63;10.90;;;22.70;81.90;;;;;;5045732;28;20246;-73
2021/07/21 02:51:30;;;;;;;10.57;9.50;;;22.70;82.00;;;;;;5042875;28;20553;-72
2021/07/21 02:54:22;;;;;;;10.63;9.53;;;22.60;81.90;;;;;;5037673;28;20235;-72
2021/07/21 02:56:54;;;;;;;10.90;9.80;;;22.70;82.00;;;;;;5042231;28;20679;-72
2021/07/21 02:59:29;;;;;;;14.40;10.63;;;22.70;82.10;;;;;;5037854;28;20207;-72
2021/07/21 03:01:59;;;;;;;16.60;10.10;;;22.60;82.20;;;;;;5040918;28;20214;-72
2021/07/21 03:04:29;;;;;;;12.57;10.33;;;22.60;82.50;;;;;;5042562;28;20225;-72
2021/07/21 03:06:57;;;;;;;10.67;9.50;;;22.60;82.20;;;;;;5042763;28;20233;-72
2021/07/21 03:09:25;;;;;;;12.47;9.90;;;22.50;82.00;;;;;;5044156;28;20226;-72
2021/07/21 03:11:55;;;;;;;21.73;11.90;;;22.40;82.20;;;;;;5046748;28;20214;-72
2021/07/21 03:14:22;;;;;;;12.73;11.43;;;22.40;82.80;;;;;;5050264;28;20234;-72
2021/07/21 03:16:52;;;;;;;14.43;10.87;;;22.30;83.20;;;;;;5049756;28;20223;-72
2021/07/21 03:19:25;;;;;;;13.33;10.90;;;22.30;83.60;;;;;;5047874;28;20230;-72
2021/07/21 03:21:54;;;;;;;15.60;11.40;;;22.30;83.80;;;;;;5046576;28;20283;-72
2021/07/21 03:24:23;;;;;;;17.33;10.80;;;22.40;84.00;;;;;;5044486;28;20226;-73
2021/07/21 03:26:51;;;;;;;15.57;10.60;;;22.40;84.00;;;;;;5042322;28;20301;-73
2021/07/21 03:29:22;;;;;;;17.30;11.93;;;22.40;83.80;;;;;;5044733;28;20215;-72
2021/07/21 03:31:49;;;;;;;14.23;10.17;;;22.40;84.00;;;;;;5041168;28;20214;-72
2021/07/21 03:34:21;;;;;;;14.77;10.37;;;22.50;83.80;;;;;;5042556;28;20241;-72
2021/07/21 03:36:51;;;;;;;9.77;8.77;;;22.50;83.60;;;;;;5045062;28;20539;-72
2021/07/21 03:39:19;;;;;;;14.33;10.33;;;22.50;83.40;;;;;;5041148;28;20285;-72
2021/07/21 03:41:50;;;;;;;13.13;10.47;;;22.50;83.30;;;;;;5045429;28;20253;-72
2021/07/21 03:44:22;;;;;;;11.77;10.43;;;22.40;83.60;;;;;;5040450;28;20218;-72
2021/07/21 03:46:51;;;;;;;11.23;9.53;;;22.40;83.60;;;;;;5038876;28;20284;-72
2021/07/21 03:49:19;;;;;;;16.37;11.23;;;22.40;83.60;;;;;;5044043;28;20597;-72
2021/07/21 03:51:48;;;;;;;13.80;10.23;;;22.40;83.80;;;;;;5044949;28;20284;-72
2021/07/21 03:54:16;;;;;;;11.17;9.97;;;22.40;83.90;;;;;;5040029;28;20620;-72
2021/07/21 03:56:45;;;;;;;13.07;11.77;;;22.40;84.00;;;;;;5041267;28;20748;-73
2021/07/21 03:59:16;;;;;;;14.00;10.93;;;22.40;84.00;;;;;;5044097;28;20210;-72
2021/07/21 04:01:45;;;;;;;13.50;11.30;;;22.40;84.00;;;;;;5041451;28;20222;-72
2021/07/21 04:04:18;;;;;;;18.43;11.23;;;22.40;84.00;;;;;;5041940;28;20218;-72
2021/07/21 04:06:46;;;;;;;11.30;9.20;;;22.40;84.10;;;;;;5042647;28;20577;-73
2021/07/21 04:09:19;;;;;;;11.87;9.07;;;22.40;84.00;;;;;;5045643;28;20222;-72
2021/07/21 04:11:50;;;;;;;19.70;12.10;;;22.40;84.00;;;;;;5042223;28;20215;-72
2021/07/21 04:14:18;;;;;;;12.50;11.03;;;22.40;84.00;;;;;;5041490;28;20707;-72
2021/07/21 04:16:47;;;;;;;11.93;10.00;;;22.40;84.20;;;;;;5047367;28;20210;-72
2021/07/21 04:19:16;;;;;;;15.83;12.30;;;22.40;84.10;;;;;;5044614;28;20219;-72
2021/07/21 04:21:47;;;;;;;11.83;10.50;;;22.50;84.40;;;;;;5047296;28;20207;-73
2021/07/21 04:24:16;;;;;;;11.33;8.93;;;22.50;84.40;;;;;;5047611;28;20229;-72
2021/07/21 04:26:45;;;;;;;14.73;12.30;;;22.50;84.20;;;;;;5044365;28;20214;-72
2021/07/21 04:29:25;;;;;;;19.37;12.47;;;22.60;84.40;;;;;;5047566;28;20783;-72
2021/07/21 04:31:53;;;;;;;11.73;10.53;;;22.60;84.50;;;;;;5043051;28;20618;-72
2021/07/21 04:34:20;;;;;;;12.13;10.63;;;22.70;84.50;;;;;;5046347;28;20230;-72
2021/07/21 04:36:48;;;;;;;12.47;10.30;;;22.80;84.20;;;;;;5044974;28;20225;-72
2021/07/21 04:39:18;;;;;;;13.03;10.50;;;22.90;84.10;;;;;;5047325;28;20251;-72
2021/07/21 04:41:51;;;;;;;13.10;10.43;;;22.90;83.80;;;;;;5046033;28;20210;-72
2021/07/21 04:44:19;;;;;;;18.73;13.47;;;23.00;83.70;;;;;;5046684;28;20211;-71
2021/07/21 04:46:47;;;;;;;16.93;12.27;;;23.00;83.70;;;;;;5043674;28;20215;-72
2021/07/21 04:49:18;;;;;;;26.37;14.03;;;23.00;84.00;;;;;;5043387;28;20265;-72
2021/07/21 04:51:47;;;;;;;15.33;13.27;;;23.10;84.20;;;;;;5043088;28;20219;-72
2021/07/21 04:54:15;;;;;;;20.67;13.40;;;23.20;84.20;;;;;;5044945;28;20296;-72
2021/07/21 04:56:42;;;;;;;16.37;13.30;;;23.20;84.30;;;;;;5046125;28;20207;-72
2021/07/21 04:59:10;;;;;;;18.50;13.47;;;23.30;84.30;;;;;;5044930;28;20211;-72
2021/07/21 05:01:38;;;;;;;19.17;13.93;;;23.40;84.10;;;;;;5043466;28;20206;-72
2021/07/21 05:04:06;;;;;;;19.50;13.70;;;23.60;83.90;;;;;;5043398;28;20211;-72
2021/07/21 05:06:33;;;;;;;13.70;12.20;;;23.70;83.70;;;;;;5042188;28;20222;-72
2021/07/21 05:09:00;;;;;;;17.10;13.90;;;23.80;83.40;;;;;;5045375;28;20685;-72
2021/07/21 05:11:27;;;;;;;13.80;12.50;;;23.90;83.10;;;;;;5045129;28;20225;-72
2021/07/21 05:13:56;;;;;;;16.30;14.60;;;24.00;82.70;;;;;;5047654;28;20241;-72
2021/07/21 05:16:24;;;;;;;18.07;13.70;;;24.10;82.50;;;;;;5041608;28;20246;-72
2021/07/21 05:18:51;;;;;;;16.33;14.33;;;24.10;82.60;;;;;;5046885;28;20211;-72
2021/07/21 05:21:17;;;;;;;17.23;14.60;;;24.10;82.80;;;;;;5045379;28;20202;-72
2021/07/21 05:23:44;;;;;;;19.50;13.83;;;24.20;82.80;;;;;;5044235;28;20215;-72
2021/07/21 05:26:12;;;;;;;16.93;14.80;;;24.20;82.70;;;;;;5045235;28;20540;-72
2021/07/21 05:28:40;;;;;;;19.07;14.20;;;24.30;82.50;;;;;;5044168;28;20417;-72
2021/07/21 05:31:07;;;;;;;14.23;12.73;;;24.40;82.40;;;;;;5045703;28;20607;-72
2021/07/21 05:33:35;;;;;;;18.10;14.73;;;24.50;82.10;;;;;;5043892;28;20250;-72
2021/07/21 05:36:03;;;;;;;19.53;14.37;;;24.50;81.70;;;;;;5045200;28;20234;-72
2021/07/21 05:38:32;;;;;;;16.13;14.17;;;24.60;81.80;;;;;;5046958;28;20709;-72
2021/07/21 05:40:59;;;;;;;15.93;13.93;;;24.60;81.80;;;;;;5043795;28;20530;-73
2021/07/21 05:43:29;;;;;;;17.40;13.37;;;24.80;81.30;;;;;;5046261;28;20212;-72
2021/07/21 05:45:56;;;;;;;16.87;14.73;;;24.90;80.90;;;;;;5041927;28;20215;-72
2021/07/21 05:48:23;;;;;;;14.13;12.67;;;25.00;80.70;;;;;;5045416;28;20280;-72
2021/07/21 05:50:51;;;;;;;15.93;13.60;;;25.20;80.20;;;;;;5041636;28;20271;-73
2021/07/21 05:53:17;;;;;;;18.47;14.43;;;25.30;79.70;;;;;;5042295;28;20214;-73
2021/07/21 05:55:45;;;;;;;18.10;14.57;;;25.40;78.90;;;;;;5042808;28;20249;-72
2021/07/21 05:58:14;;;;;;;17.97;13.93;;;25.40;79.20;;;;;;5045560;28;20619;-72
2021/07/21 06:00:44;;;;;;;19.80;14.43;;;25.40;79.30;;;;;;5042926;28;20220;-72
2021/07/21 06:03:14;;;;;;;16.43;14.00;;;25.50;79.20;;;;;;5043485;28;20218;-72
2021/07/21 06:05:41;;;;;;;18.27;13.37;;;25.70;79.10;;;;;;5044886;28;20252;-72
2021/07/21 06:08:08;;;;;;;15.73;13.40;;;25.90;78.40;;;;;;5043251;28;20225;-72
2021/07/21 06:10:35;;;;;;;15.63;11.80;;;26.00;77.80;;;;;;5043804;28;20246;-72
2021/07/21 06:13:02;;;;;;;15.27;12.70;;;26.10;77.20;;;;;;5044966;28;20290;-72
2021/07/21 06:15:30;;;;;;;15.80;13.43;;;26.30;77.00;;;;;;5047841;28;20677;-72
2021/07/21 06:17:57;;;;;;;14.90;12.20;;;26.50;76.40;;;;;;5041738;28;20222;-72
2021/07/21 06:20:24;;;;;;;18.50;12.63;;;26.70;75.70;;;;;;5042813;28;20241;-72
2021/07/21 06:22:51;;;;;;;15.43;11.80;;;27.00;74.90;;;;;;5045324;28;20225;-72
2021/07/21 06:25:18;;;;;;;17.93;11.73;;;27.20;73.60;;;;;;5042044;28;20631;-72
2021/07/21 06:27:46;;;;;;;19.13;11.83;;;27.40;72.90;;;;;;5041501;28;20215;-72
2021/07/21 06:30:15;;;;;;;11.87;10.67;;;27.70;72.30;;;;;;5037994;28;20691;-72
2021/07/21 06:32:44;;;;;;;13.20;10.70;;;27.80;71.00;;;;;;5038388;28;20218;-72
2021/07/21 06:35:11;;;;;;;12.10;10.57;;;27.90;69.70;;;;;;5045421;28;20296;-72
2021/07/21 06:37:39;;;;;;;17.27;10.40;;;28.10;69.00;;;;;;5044462;28;20210;-72
2021/07/21 06:40:08;;;;;;;11.50;10.40;;;28.20;68.30;;;;;;5042045;28;20307;-72
2021/07/21 06:42:39;;;;;;;12.77;11.00;;;28.40;67.80;;;;;;5039374;28;20218;-72
2021/07/21 06:45:06;;;;;;;14.57;11.47;;;28.60;67.60;;;;;;5044603;28;20723;-72
2021/07/21 06:47:33;;;;;;;14.00;11.23;;;28.80;66.60;;;;;;5046014;28;20222;-72
2021/07/21 06:50:00;;;;;;;13.93;10.00;;;28.90;65.90;;;;;;5045373;28;20595;-72
2021/07/21 06:52:27;;;;;;;11.73;10.50;;;29.00;64.70;;;;;;5045417;28;20214;-72
2021/07/21 06:54:54;;;;;;;14.23;9.37;;;29.20;65.20;;;;;;5041802;28;20235;-72
2021/07/21 06:57:22;;;;;;;13.10;10.73;;;29.30;64.00;;;;;;5036695;28;20215;-72
2021/07/21 06:59:49;;;;;;;12.77;10.47;;;29.50;62.70;;;;;;5037742;28;20272;-72
2021/07/21 07:02:16;;;;;;;14.23;10.17;;;29.60;62.40;;;;;;5042163;28;20207;-72
2021/07/21 07:04:43;;;;;;;13.10;10.10;;;29.70;62.70;;;;;;5043803;28;20294;-74
2021/07/21 07:07:10;;;;;;;12.50;9.30;;;29.80;61.80;;;;;;5041928;28;20222;-73
2021/07/21 07:09:37;;;;;;;10.33;9.33;;;30.00;61.70;;;;;;5043629;28;20218;-73
2021/07/21 07:12:05;;;;;;;12.17;9.57;;;30.10;61.00;;;;;;5042394;28;20225;-73
2021/07/21 07:14:32;;;;;;;10.13;8.97;;;30.30;60.70;;;;;;5044349;28;20305;-73
2021/07/21 07:17:00;;;;;;;13.47;9.03;;;30.40;60.10;;;;;;5045107;28;20232;-73
2021/07/21 07:19:27;;;;;;;12.50;9.67;;;30.40;60.50;;;;;;5045830;28;20229;-73
2021/07/21 07:21:54;;;;;;;11.50;9.03;;;30.50;59.80;;;;;;5042934;28;20211;-73
2021/07/21 07:24:22;;;;;;;14.33;10.00;;;30.50;60.30;;;;;;5043264;28;20214;-72
2021/07/21 07:26:48;;;;;;;14.50;11.07;;;30.40;60.60;;;;;;5043149;28;20535;-73
2021/07/21 07:29:15;;;;;;;13.77;10.30;;;30.40;61.00;;;;;;5041542;28;20219;-73
2021/07/21 07:31:42;;;;;;;18.00;9.53;;;30.60;60.50;;;;;;5042545;28;20623;-73
2021/07/21 07:34:09;;;;;;;13.80;9.70;;;30.70;61.00;;;;;;5043212;28;20224;-73
2021/07/21 07:36:37;;;;;;;11.40;10.20;;;30.90;60.80;;;;;;5043395;28;20239;-73
2021/07/21 07:39:05;;;;;;;17.80;10.93;;;30.90;60.10;;;;;;5043275;28;20623;-73
2021/07/21 07:41:32;;;;;;;10.93;9.73;;;30.90;60.10;;;;;;5043048;28;20241;-73
2021/07/21 07:44:00;;;;;;;12.50;9.50;;;31.00;59.90;;;;;;5046217;28;20696;-72
2021/07/21 07:46:27;;;;;;;10.47;9.37;;;30.90;59.70;;;;;;5038922;28;20685;-72
2021/07/21 07:48:55;;;;;;;13.27;8.70;;;30.90;59.60;;;;;;5045535;28;20225;-73
2021/07/21 07:51:22;;;;;;;10.43;8.37;;;31.00;60.10;;;;;;5047818;28;20248;-73
2021/07/21 07:53:50;;;;;;;17.17;9.57;;;31.20;59.50;;;;;;5045296;28;20277;-73
2021/07/21 07:56:17;;;;;;;11.53;9.07;;;31.50;59.20;;;;;;5046225;28;20243;-73
2021/07/21 07:58:45;;;;;;;12.43;8.93;;;31.80;58.40;;;;;;5047467;28;20211;-73
2021/07/21 08:01:13;;;;;;;14.03;9.00;;;31.90;58.10;;;;;;5045900;28;20812;-75
2021/07/21 08:03:41;;;;;;;11.70;9.03;;;32.10;57.50;;;;;;5047433;28;20210;-73
2021/07/21 08:06:08;;;;;;;9.63;8.63;;;32.10;57.10;;;;;;5049129;28;20218;-73
2021/07/21 08:08:35;;;;;;;10.70;9.17;;;32.10;57.40;;;;;;5045485;28;20215;-73
2021/07/21 08:11:04;;;;;;;10.10;9.13;;;32.00;56.90;;;;;;5047966;28;20245;-73
2021/07/21 08:13:32;;;;;;;12.00;8.57;;;31.90;57.10;;;;;;5045101;28;20207;-73
2021/07/21 08:15:59;;;;;;;17.20;7.93;;;31.70;57.30;;;;;;5047361;28;20310;-74
2021/07/21 08:18:26;;;;;;;13.60;8.43;;;31.60;58.10;;;;;;5045416;28;20221;-73
2021/07/21 08:20:54;;;;;;;9.83;7.47;;;31.50;58.10;;;;;;5045011;28;20207;-72
2021/07/21 08:23:21;;;;;;;10.10;6.57;;;31.60;58.90;;;;;;5047458;28;20511;-73
2021/07/21 08:25:48;;;;;;;14.73;7.40;;;31.90;58.00;;;;;;5046993;28;20211;-73
2021/07/21 08:28:16;;;;;;;12.70;6.80;;;32.20;56.60;;;;;;5044215;28;20310;-73
2021/07/21 08:30:44;;;;;;;18.77;8.03;;;32.30;57.10;;;;;;5042681;28;20211;-73
2021/07/21 08:33:12;;;;;;;11.30;6.90;;;32.50;57.50;;;;;;5046306;28;20258;-73
2021/07/21 08:35:40;;;;;;;11.17;8.10;;;32.80;55.90;;;;;;5042075;28;20239;-73
2021/07/21 08:38:08;;;;;;;13.20;7.53;;;33.00;54.80;;;;;;5039722;28;20247;-73
2021/07/21 08:40:35;;;;;;;8.90;7.13;;;33.20;55.30;;;;;;5039837;28;20590;-73
2021/07/21 08:43:22;;;;;;;9.03;6.93;;;33.40;55.20;;;;;;5048838;28;20202;-73
2021/07/21 08:45:52;;;;;;;12.33;7.27;;;33.60;55.20;;;;;;5044745;28;20210;-72
2021/07/21 08:48:20;;;;;;;8.27;6.60;;;33.80;54.60;;;;;;5043453;28;20217;-72
2021/07/21 08:50:47;;;;;;;8.17;6.70;;;33.90;53.40;;;;;;5046310;28;20223;-72
2021/07/21 08:53:16;;;;;;;8.10;6.90;;;33.90;53.10;;;;;;5042952;28;20541;-72
2021/07/21 08:55:43;;;;;;;13.33;6.93;;;33.80;52.60;;;;;;5044710;28;20242;-71
2021/07/21 08:58:11;;;;;;;8.27;6.67;;;33.80;52.60;;;;;;5042853;28;20221;-71
2021/07/21 09:00:38;;;;;;;11.80;7.40;;;33.90;51.70;;;;;;5045692;28;20207;-71
2021/07/21 09:03:06;;;;;;;9.83;5.93;;;34.00;52.10;;;;;;5044335;28;20211;-72
2021/07/21 09:05:33;;;;;;;7.27;6.13;;;34.10;51.70;;;;;;5044737;28;20301;-72
2021/07/21 09:08:01;;;;;;;8.40;6.43;;;34.10;51.20;;;;;;5043465;28;20539;-72
2021/07/21 09:10:28;;;;;;;9.63;6.37;;;34.20;50.20;;;;;;5045664;28;20357;-72
2021/07/21 09:12:55;;;;;;;7.83;6.00;;;34.10;50.50;;;;;;5044204;28;20659;-71
2021/07/21 09:15:24;;;;;;;9.87;7.03;;;34.10;50.60;;;;;;5042517;28;20238;-71
2021/07/21 09:18:05;;;;;;;7.90;6.80;;;34.10;51.60;;;;;;5047555;28;20210;-71
2021/07/21 09:21:02;;;;;;;10.20;6.67;;;34.20;51.70;;;;;;5039445;28;20590;-71
2021/07/21 09:23:44;;;;;;;8.47;6.20;;;34.20;50.10;;;;;;5046510;28;20214;-71
2021/07/21 09:26:19;;;;;;;7.97;6.03;;;34.30;50.80;;;;;;5042313;28;20226;-72
2021/07/21 09:28:46;;;;;;;6.70;5.97;;;34.40;50.50;;;;;;5044621;28;20552;-69
2021/07/21 09:31:27;;;;;;;6.73;5.67;;;34.40;49.70;;;;;;5045056;28;20540;-69
2021/07/21 09:33:56;;;;;;;8.83;6.00;;;34.40;49.80;;;;;;5039150;28;20218;-69
2021/07/21 09:36:23;;;;;;;8.37;6.20;;;34.50;48.80;;;;;;5039137;28;20239;-69
2021/07/21 09:38:59;;;;;;;9.50;6.67;;;34.40;49.60;;;;;;5038630;28;20902;-69
2021/07/21 09:41:26;;;;;;;8.53;6.47;;;34.40;49.40;;;;;;5041321;28;20226;-69
2021/07/21 09:44:00;;;;;;;7.80;6.03;;;34.40;50.00;;;;;;5048455;28;20206;-69
2021/07/21 09:46:27;;;;;;;6.03;4.63;;;34.40;48.30;;;;;;5044250;28;20222;-69
2021/07/21 09:48:55;;;;;;;10.27;5.67;;;34.50;47.80;;;;;;5044833;28;20221;-69
2021/07/21 09:51:27;;;;;;;6.80;5.97;;;34.50;47.10;;;;;;5043917;28;20219;-69
2021/07/21 09:53:54;;;;;;;5.90;5.30;;;34.50;48.60;;;;;;5044195;28;20221;-69
2021/07/21 09:56:29;;;;;;;8.33;5.63;;;34.60;47.00;;;;;;5044361;28;20300;-69
2021/07/21 09:59:18;;;;;;;9.97;5.43;;;34.50;46.40;;;;;;5043551;28;20209;-69
2021/07/21 10:01:45;;;;;;;5.87;5.20;;;34.40;45.10;;;;;;5041254;28;20646;-69
2021/07/21 10:04:13;;;;;;;8.03;6.10;;;34.30;45.80;;;;;;5043823;28;20203;-69
2021/07/21 10:06:41;;;;;;;7.93;5.60;;;34.20;46.60;;;;;;5044664;28;20222;-69
2021/07/21 10:09:08;;;;;;;7.90;5.20;;;34.30;47.70;;;;;;5043781;28;20238;-69
2021/07/21 10:11:37;;;;;;;8.20;5.67;;;34.40;47.40;;;;;;5044891;28;20214;-69
2021/07/21 10:14:04;;;;;;;8.43;5.67;;;34.50;46.50;;;;;;5043365;28;20242;-70
2021/07/21 10:16:34;;;;;;;9.80;5.13;;;34.70;45.80;;;;;;5049831;28;20571;-69
2021/07/21 10:19:23;;;;;;;12.00;5.57;;;34.80;46.00;;;;;;5044318;28;20214;-69
2021/07/21 10:21:53;;;;;;;8.30;5.37;;;34.80;45.40;;;;;;5038826;28;20222;-69
2021/07/21 10:24:23;;;;;;;10.97;5.60;;;34.70;46.70;;;;;;5045450;28;20215;-69
2021/07/21 10:26:51;;;;;;;10.50;5.47;;;34.80;46.80;;;;;;5042610;28;20292;-69
2021/07/21 10:29:19;;;;;;;7.90;5.83;;;34.90;46.40;;;;;;5044886;28;20214;-69
2021/07/21 10:31:46;;;;;;;11.27;5.77;;;35.00;46.20;;;;;;5044001;28;20222;-68
2021/07/21 10:34:21;;;;;;;8.43;5.57;;;34.90;45.30;;;;;;5044892;28;20214;-69
2021/07/21 10:36:49;;;;;;;6.00;5.30;;;34.80;45.40;;;;;;5043307;28;20250;-69
2021/07/21 10:39:16;;;;;;;18.23;6.10;;;34.80;45.60;;;;;;5043858;28;20310;-69
2021/07/21 10:41:46;;;;;;;10.27;5.13;;;34.80;45.50;;;;;;5043160;28;20215;-69
2021/07/21 10:44:17;;;;;;;7.33;5.27;;;34.80;45.60;;;;;;5045507;28;20558;-68
2021/07/21 10:46:52;;;;;;;8.20;5.07;;;35.00;45.10;;;;;;5040517;28;20253;-69
2021/07/21 10:49:44;;;;;;;8.07;5.33;;;35.20;45.40;;;;;;5044381;28;20646;-68
2021/07/21 11:00:41;;;;;;;7.47;5.60;;;35.40;45.10;;;;;;5062303;28;20205;-69
2021/07/21 11:03:35;;;;;;;5.00;4.50;;;35.40;44.70;;;;;;5048289;28;20254;-69
2021/07/21 11:06:10;;;;;;;6.20;5.50;;;35.40;42.80;;;;;;5042737;28;20217;-68
2021/07/21 11:08:49;;;;;;;7.63;5.30;;;35.30;43.70;;;;;;5041904;28;20245;-70
2021/07/21 11:11:20;;;;;;;5.70;5.03;;;35.40;44.70;;;;;;5039069;28;20669;-70
2021/07/21 11:13:58;;;;;;;6.97;5.57;;;35.40;44.60;;;;;;5044089;28;20650;-70
2021/07/21 11:17:08;;;;;;;8.40;4.90;;;35.40;45.30;;;;;;5043634;28;20314;-70
2021/07/21 11:19:48;;;;;;;8.93;5.53;;;35.60;44.20;;;;;;5037794;28;20284;-70
2021/07/21 11:22:19;;;;;;;9.70;6.00;;;35.80;44.60;;;;;;5038218;28;20308;-70
2021/07/21 11:25:04;;;;;;;8.60;5.83;;;36.00;44.10;;;;;;5045365;28;20202;-70
2021/07/21 11:27:54;;;;;;;10.17;5.93;;;36.00;44.30;;;;;;5042237;28;20211;-70
2021/07/21 11:30:47;;;;;;;6.77;5.40;;;36.00;43.70;;;;;;5045792;28;20620;-70
2021/07/21 11:33:54;;;;;;;14.47;6.03;;;35.90;42.90;;;;;;5046849;28;20226;-70
2021/07/21 11:36:40;;;;;;;7.53;5.73;;;35.80;44.20;;;;;;5041356;28;20288;-70
2021/07/21 11:39:09;;;;;;;8.07;6.03;;;35.80;44.00;;;;;;5043722;28;20239;-70
2021/07/21 11:41:47;;;;;;;11.40;6.47;;;35.60;43.80;;;;;;5044869;28;20303;-70
2021/07/21 11:44:25;;;;;;;6.53;5.37;;;35.40;44.10;;;;;;5044154;28;20218;-69
2021/07/21 11:46:55;;;;;;;10.57;5.70;;;35.40;45.40;;;;;;5045073;28;20559;-70
2021/07/21 11:49:25;;;;;;;10.13;5.90;;;35.50;44.90;;;;;;5046587;28;20219;-69
2021/07/21 11:51:59;;;;;;;5.97;5.40;;;35.70;44.10;;;;;;5047080;28;20218;-69
2021/07/21 11:54:30;;;;;;;11.03;5.53;;;35.70;44.60;;;;;;5047401;28;20218;-69
2021/07/21 11:56:59;;;;;;;8.63;6.00;;;35.60;44.10;;;;;;5045765;28;20234;-69
2021/07/21 11:59:34;;;;;;;9.07;6.27;;;35.40;44.40;;;;;;5047476;28;20219;-68
2021/07/21 12:02:02;;;;;;;11.27;6.30;;;35.40;45.10;;;;;;5043603;28;20207;-68
2021/07/21 12:04:30;;;;;;;7.20;5.70;;;35.10;46.20;;;;;;5040761;28;20211;-70
2021/07/21 12:06:57;;;;;;;8.50;5.83;;;35.00;46.60;;;;;;5039605;28;20293;-69
2021/07/21 12:09:32;;;;;;;7.77;5.80;;;35.20;46.30;;;;;;5044864;28;20218;-69
2021/07/21 12:12:02;;;;;;;8.73;6.27;;;35.30;45.40;;;;;;5041695;28;20237;-69
2021/07/21 12:14:29;;;;;;;7.70;5.80;;;35.20;46.00;;;;;;5047369;28;20222;-68
2021/07/21 12:17:12;;;;;;;9.10;6.23;;;35.20;45.50;;;;;;5042348;28;20239;-68
2021/07/21 12:19:42;;;;;;;7.10;5.67;;;35.10;45.80;;;;;;5045231;28;20214;-68
2021/07/21 12:22:14;;;;;;;10.60;6.70;;;35.30;46.50;;;;;;5047021;28;20500;-68
2021/07/21 12:24:44;;;;;;;9.70;6.80;;;35.50;46.20;;;;;;5044636;28;20218;-68
2021/07/21 12:27:13;;;;;;;9.80;6.80;;;35.60;46.70;;;;;;5047377;28;20670;-68
2021/07/21 12:29:41;;;;;;;8.53;6.27;;;35.50;47.20;;;;;;5045433;28;20246;-68
2021/07/21 12:32:13;;;;;;;7.10;6.07;;;35.60;46.60;;;;;;5040468;28;20237;-68
2021/07/21 12:34:43;;;;;;;7.60;6.17;;;35.60;47.30;;;;;;5036630;28;20273;-68
2021/07/21 12:37:15;;;;;;;9.50;6.00;;;35.50;47.30;;;;;;5042628;28;20250;-68
2021/07/21 12:39:45;;;;;;;11.57;6.17;;;35.40;47.40;;;;;;5046347;28;20243;-68
2021/07/21 12:42:18;;;;;;;6.93;6.10;;;35.30;47.70;;;;;;5045183;28;20223;-68
2021/07/21 12:44:50;;;;;;;11.90;5.73;;;35.20;48.30;;;;;;5046553;28;20225;-68
2021/07/21 12:47:32;;;;;;;7.80;6.37;;;35.00;48.10;;;;;;5043063;28;20219;-68
2021/07/21 12:50:05;;;;;;;9.23;6.27;;;34.90;48.80;;;;;;5040886;28;20297;-68
2021/07/21 12:52:45;;;;;;;7.73;5.60;;;34.80;48.60;;;;;;5045696;28;20218;-68
2021/07/21 12:55:15;;;;;;;15.40;6.10;;;34.70;50.20;;;;;;5046217;28;20639;-68
2021/07/21 12:57:44;;;;;;;9.73;6.57;;;34.70;49.20;;;;;;5044864;28;20261;-68
2021/07/21 13:00:12;;;;;;;7.70;5.80;;;34.70;49.10;;;;;;5046588;28;20214;-68
2021/07/21 13:02:41;;;;;;;9.67;6.13;;;34.70;48.60;;;;;;5044422;28;20226;-68
2021/07/21 13:05:42;;;;;;;8.60;6.17;;;34.60;49.10;;;;;;5046552;28;20293;-68
2021/07/21 13:08:12;;;;;;;11.77;5.90;;;34.70;48.80;;;;;;5046653;28;20214;-68
2021/07/21 13:10:42;;;;;;;9.83;5.90;;;34.80;49.50;;;;;;5039703;28;20225;-68
2021/07/21 13:13:23;;;;;;;5.57;5.00;;;34.90;48.10;;;;;;5040247;28;20269;-68